createdAt,value
2018-07-09T00:00:57.139Z,12.28
2018-07-09T00:01:57.224Z,12.28
2018-07-09T00:02:57.194Z,12.26
2018-07-09T00:03:57.139Z,12.28
2018-07-09T00:04:57.136Z,12.28
2018-07-09T00:05:57.198Z,12.25
2018-07-09T00:06:57.259Z,12.24
2018-07-09T00:07:57.164Z,12.22
2018-07-09T00:08:57.202Z,12.18
2018-07-09T00:09:57.134Z,12.14
2018-07-09T00:10:57.210Z,12.14
2018-07-09T00:11:57.260Z,12.13
2018-07-09T00:12:57.206Z,12.09
2018-07-09T00:13:57.206Z,12.10
2018-07-09T00:14:57.205Z,12.10
2018-07-09T00:15:57.208Z,12.09
2018-07-09T00:16:57.209Z,12.06
2018-07-09T00:17:57.210Z,12.03
2018-07-09T00:18:57.158Z,12.02
2018-07-09T00:19:57.204Z,12.05
2018-07-09T00:20:57.133Z,12.02
2018-07-09T00:21:57.117Z,12.01
2018-07-09T00:22:57.167Z,11.97
2018-07-09T00:23:57.109Z,11.98
2018-07-09T00:24:57.119Z,11.95
2018-07-09T00:25:57.210Z,11.92
2018-07-09T00:26:57.086Z,11.92
2018-07-09T00:27:57.208Z,11.89
2018-07-09T00:28:57.161Z,11.89
2018-07-09T00:29:57.235Z,11.86
2018-07-09T00:30:57.145Z,11.84
2018-07-09T00:31:57.153Z,11.84
2018-07-09T00:32:57.219Z,11.82
2018-07-09T00:33:57.157Z,11.83
2018-07-09T00:34:57.156Z,11.79
2018-07-09T00:35:57.153Z,11.76
2018-07-09T00:36:57.231Z,11.79
2018-07-09T00:37:57.153Z,11.75
2018-07-09T00:38:57.248Z,11.72
2018-07-09T00:39:57.158Z,11.72
2018-07-09T00:40:57.201Z,11.67
2018-07-09T00:41:57.205Z,11.65
2018-07-09T00:42:57.257Z,11.61
2018-07-09T00:43:57.190Z,11.60
2018-07-09T00:44:57.184Z,11.57
2018-07-09T00:45:57.258Z,11.54
2018-07-09T00:46:57.181Z,11.53
2018-07-09T00:47:57.227Z,11.51
2018-07-09T00:48:57.231Z,11.47
2018-07-09T00:49:57.232Z,11.43
2018-07-09T00:50:57.173Z,11.42
2018-07-09T00:51:57.228Z,11.39
2018-07-09T00:52:57.228Z,11.36
2018-07-09T00:53:57.168Z,11.36
2018-07-09T00:54:57.237Z,11.36
2018-07-09T00:55:57.164Z,11.39
2018-07-09T00:56:57.236Z,11.39
2018-07-09T00:57:57.167Z,11.38
2018-07-09T00:58:57.268Z,11.35
2018-07-09T00:59:57.236Z,11.36
2018-07-09T01:00:57.196Z,11.33
2018-07-09T01:01:57.239Z,11.29
2018-07-09T01:02:57.281Z,11.27
2018-07-09T01:03:57.246Z,11.24
2018-07-09T01:04:57.263Z,11.20
2018-07-09T01:05:57.281Z,11.16
2018-07-09T01:06:57.249Z,11.13
2018-07-09T01:07:57.243Z,11.11
2018-07-09T01:08:57.257Z,11.07
2018-07-09T01:09:57.145Z,11.03
2018-07-09T01:10:57.201Z,10.98
2018-07-09T01:11:57.246Z,10.95
2018-07-09T01:12:57.318Z,10.91
2018-07-09T01:13:57.223Z,10.88
2018-07-09T01:14:57.151Z,10.86
2018-07-09T01:15:57.284Z,10.83
2018-07-09T01:16:57.189Z,10.80
2018-07-09T01:17:57.219Z,10.74
2018-07-09T01:18:57.183Z,10.74
2018-07-09T01:19:57.251Z,10.75
2018-07-09T01:20:57.188Z,10.72
2018-07-09T01:21:57.252Z,10.69
2018-07-09T01:22:57.147Z,10.68
2018-07-09T01:23:57.185Z,10.68
2018-07-09T01:24:57.252Z,10.74
2018-07-09T01:25:57.190Z,10.80
2018-07-09T01:26:57.253Z,10.81
2018-07-09T01:27:57.219Z,10.75
2018-07-09T01:28:57.255Z,10.69
2018-07-09T01:29:57.534Z,10.65
2018-07-09T01:30:57.288Z,10.61
2018-07-09T01:31:57.224Z,10.58
2018-07-09T01:32:57.284Z,10.57
2018-07-09T01:33:57.229Z,10.54
2018-07-09T01:34:57.234Z,10.50
2018-07-09T01:35:57.290Z,10.49
2018-07-09T01:36:57.232Z,10.47
2018-07-09T01:37:57.313Z,10.45
2018-07-09T01:38:57.230Z,10.43
2018-07-09T01:39:57.183Z,10.46
2018-07-09T01:40:57.168Z,10.41
2018-07-09T01:41:57.287Z,10.39
2018-07-09T01:42:57.240Z,10.35
2018-07-09T01:43:57.304Z,10.38
2018-07-09T01:44:57.266Z,10.36
2018-07-09T01:45:57.266Z,10.38
2018-07-09T01:46:57.265Z,10.38
2018-07-09T01:47:57.209Z,10.34
2018-07-09T01:48:57.269Z,10.32
2018-07-09T01:49:57.273Z,10.27
2018-07-09T01:50:57.208Z,10.23
2018-07-09T01:51:57.205Z,10.23
2018-07-09T01:52:57.270Z,10.23
2018-07-09T01:53:57.271Z,10.23
2018-07-09T01:54:57.203Z,10.23
2018-07-09T01:55:57.273Z,10.21
2018-07-09T01:56:57.212Z,10.18
2018-07-09T01:57:57.210Z,10.16
2018-07-09T01:58:57.179Z,10.16
2018-07-09T01:59:57.276Z,10.13
2018-07-09T02:00:57.294Z,10.11
2018-07-09T02:01:57.317Z,10.09
2018-07-09T02:02:57.282Z,10.06
2018-07-09T02:03:57.186Z,10.05
2018-07-09T02:04:57.280Z,10.04
2018-07-09T02:05:57.232Z,10.02
2018-07-09T02:06:57.201Z,10.04
2018-07-09T02:07:57.248Z,10.02
2018-07-09T02:08:57.147Z,10.00
2018-07-09T02:09:57.219Z,9.97
2018-07-09T02:10:57.268Z,9.95
2018-07-09T02:11:57.239Z,9.98
2018-07-09T02:12:57.238Z,10.00
2018-07-09T02:13:57.260Z,10.01
2018-07-09T02:14:57.159Z,9.98
2018-07-09T02:15:57.157Z,9.97
2018-07-09T02:16:57.273Z,9.94
2018-07-09T02:17:57.227Z,9.93
2018-07-09T02:18:57.163Z,9.97
2018-07-09T02:19:57.161Z,10.01
2018-07-09T02:20:57.159Z,9.97
2018-07-09T02:21:57.164Z,9.93
2018-07-09T02:22:57.228Z,9.91
2018-07-09T02:23:57.166Z,9.94
2018-07-09T02:24:57.250Z,9.93
2018-07-09T02:25:57.201Z,9.91
2018-07-09T02:26:57.189Z,9.87
2018-07-09T02:27:57.232Z,9.84
2018-07-09T02:28:57.290Z,9.86
2018-07-09T02:29:57.296Z,9.82
2018-07-09T02:30:57.238Z,9.80
2018-07-09T02:31:57.209Z,9.79
2018-07-09T02:32:57.272Z,9.79
2018-07-09T02:33:57.300Z,9.79
2018-07-09T02:34:57.323Z,9.76
2018-07-09T02:35:57.339Z,9.75
2018-07-09T02:36:57.321Z,9.73
2018-07-09T02:37:57.309Z,9.69
2018-07-09T02:38:57.299Z,9.71
2018-07-09T02:39:57.275Z,9.69
2018-07-09T02:40:57.363Z,9.68
2018-07-09T02:41:57.307Z,9.69
2018-07-09T02:42:57.207Z,9.66
2018-07-09T02:43:57.329Z,9.66
2018-07-09T02:44:57.339Z,9.65
2018-07-09T02:45:57.355Z,9.69
2018-07-09T02:46:57.206Z,9.68
2018-07-09T02:47:57.308Z,9.64
2018-07-09T02:48:57.289Z,9.65
2018-07-09T02:49:57.212Z,9.66
2018-07-09T02:50:57.343Z,9.62
2018-07-09T02:51:57.215Z,9.58
2018-07-09T02:52:57.220Z,9.53
2018-07-09T02:53:57.345Z,9.49
2018-07-09T02:54:57.258Z,9.44
2018-07-09T02:55:57.349Z,9.42
2018-07-09T02:56:57.292Z,9.39
2018-07-09T02:57:57.275Z,9.36
2018-07-09T02:58:57.277Z,9.32
2018-07-09T02:59:57.240Z,9.31
2018-07-09T03:00:57.351Z,9.31
2018-07-09T03:01:57.277Z,9.28
2018-07-09T03:02:57.248Z,9.28
2018-07-09T03:03:57.269Z,9.31
2018-07-09T03:04:57.240Z,9.31
2018-07-09T03:05:57.275Z,9.30
2018-07-09T03:06:57.337Z,9.31
2018-07-09T03:07:57.235Z,9.28
2018-07-09T03:08:57.260Z,9.23
2018-07-09T03:09:57.324Z,9.20
2018-07-09T03:10:57.328Z,9.23
2018-07-09T03:11:57.364Z,9.20
2018-07-09T03:12:57.326Z,9.18
2018-07-09T03:13:57.248Z,9.19
2018-07-09T03:14:57.346Z,9.18
2018-07-09T03:15:57.327Z,9.18
2018-07-09T03:16:57.293Z,9.18
2018-07-09T03:17:57.240Z,9.16
2018-07-09T03:18:57.376Z,9.15
2018-07-09T03:19:57.358Z,9.15
2018-07-09T03:20:57.297Z,9.12
2018-07-09T03:21:57.379Z,9.12
2018-07-09T03:22:57.370Z,9.12
2018-07-09T03:23:57.239Z,9.11
2018-07-09T03:24:57.333Z,9.09
2018-07-09T03:25:57.381Z,9.08
2018-07-09T03:26:57.241Z,9.11
2018-07-09T03:27:57.301Z,9.16
2018-07-09T03:28:57.269Z,9.16
2018-07-09T03:29:57.337Z,9.12
2018-07-09T03:30:57.267Z,9.11
2018-07-09T03:31:57.272Z,9.09
2018-07-09T03:32:57.338Z,9.09
2018-07-09T03:33:57.336Z,9.09
2018-07-09T03:34:57.272Z,9.11
2018-07-09T03:35:57.273Z,9.13
2018-07-09T03:36:57.337Z,9.13
2018-07-09T03:37:57.342Z,9.13
2018-07-09T03:38:57.325Z,9.13
2018-07-09T03:39:57.244Z,9.15
2018-07-09T03:40:57.250Z,9.16
2018-07-09T03:41:57.245Z,9.16
2018-07-09T03:42:57.250Z,9.13
2018-07-09T03:43:57.249Z,9.13
2018-07-09T03:44:57.254Z,9.18
2018-07-09T03:45:57.299Z,9.15
2018-07-09T03:46:57.348Z,9.16
2018-07-09T03:47:57.250Z,9.18
2018-07-09T03:48:57.349Z,9.18
2018-07-09T03:49:57.347Z,9.16
2018-07-09T03:50:57.284Z,9.20
2018-07-09T03:51:57.352Z,9.25
2018-07-09T03:52:57.285Z,9.32
2018-07-09T03:53:57.349Z,9.40
2018-07-09T03:54:57.349Z,9.44
2018-07-09T03:55:57.325Z,9.46
2018-07-09T03:56:57.288Z,9.46
2018-07-09T03:57:57.422Z,9.47
2018-07-09T03:58:57.353Z,9.49
2018-07-09T03:59:57.356Z,9.51
2018-07-09T04:00:57.290Z,9.50
2018-07-09T04:01:57.299Z,9.54
2018-07-09T04:02:57.296Z,9.61
2018-07-09T04:03:57.296Z,9.65
2018-07-09T04:04:57.356Z,9.66
2018-07-09T04:05:57.389Z,9.71
2018-07-09T04:06:57.303Z,9.76
2018-07-09T04:07:57.364Z,9.79
2018-07-09T04:08:57.312Z,9.82
2018-07-09T04:09:57.329Z,9.90
2018-07-09T04:10:57.339Z,9.94
2018-07-09T04:11:57.363Z,9.97
2018-07-09T04:12:57.374Z,10.02
2018-07-09T04:13:57.338Z,10.08
2018-07-09T04:14:57.393Z,10.17
2018-07-09T04:15:57.302Z,10.23
2018-07-09T04:16:57.393Z,10.27
2018-07-09T04:17:57.328Z,10.30
2018-07-09T04:18:57.327Z,10.35
2018-07-09T04:19:57.333Z,10.42
2018-07-09T04:20:57.463Z,10.47
2018-07-09T04:21:57.405Z,10.56
2018-07-09T04:22:57.371Z,10.61
2018-07-09T04:23:57.402Z,10.69
2018-07-09T04:24:57.313Z,10.79
2018-07-09T04:25:57.277Z,10.86
2018-07-09T04:26:57.391Z,10.95
2018-07-09T04:27:57.410Z,11.05
2018-07-09T04:28:57.315Z,11.16
2018-07-09T04:29:57.377Z,11.24
2018-07-09T04:30:57.311Z,11.32
2018-07-09T04:31:57.387Z,11.40
2018-07-09T04:32:57.308Z,11.50
2018-07-09T04:33:57.308Z,11.61
2018-07-09T04:34:57.316Z,11.69
2018-07-09T04:35:57.314Z,11.80
2018-07-09T04:36:57.383Z,11.89
2018-07-09T04:37:57.483Z,11.97
2018-07-09T04:38:57.381Z,12.02
2018-07-09T04:39:57.337Z,12.13
2018-07-09T04:40:57.285Z,12.24
2018-07-09T04:41:57.384Z,12.29
2018-07-09T04:42:57.369Z,12.40
2018-07-09T04:43:57.399Z,12.48
2018-07-09T04:44:57.302Z,12.57
2018-07-09T04:45:57.354Z,12.66
2018-07-09T04:46:57.415Z,12.73
2018-07-09T04:47:57.347Z,12.83
2018-07-09T04:48:57.298Z,12.92
2018-07-09T04:49:57.392Z,13.02
2018-07-09T04:50:57.371Z,13.09
2018-07-09T04:51:57.350Z,13.16
2018-07-09T04:52:57.352Z,13.27
2018-07-09T04:53:57.423Z,13.34
2018-07-09T04:54:57.390Z,13.40
2018-07-09T04:55:57.430Z,13.47
2018-07-09T04:56:57.366Z,13.56
2018-07-09T04:57:57.370Z,13.65
2018-07-09T04:58:57.421Z,13.70
2018-07-09T04:59:57.295Z,13.76
2018-07-09T05:00:57.432Z,13.77
2018-07-09T05:01:57.302Z,13.80
2018-07-09T05:02:57.397Z,13.84
2018-07-09T05:03:57.318Z,13.84
2018-07-09T05:04:57.416Z,13.88
2018-07-09T05:05:57.336Z,13.88
2018-07-09T05:06:57.374Z,13.89
2018-07-09T05:07:57.439Z,13.91
2018-07-09T05:08:57.370Z,13.95
2018-07-09T05:09:57.405Z,13.99
2018-07-09T05:10:57.338Z,14.03
2018-07-09T05:11:57.451Z,14.07
2018-07-09T05:12:57.382Z,14.10
2018-07-09T05:13:57.295Z,14.14
2018-07-09T05:14:57.431Z,14.18
2018-07-09T05:15:57.406Z,14.21
2018-07-09T05:16:57.340Z,14.27
2018-07-09T05:17:57.463Z,14.28
2018-07-09T05:18:57.341Z,14.22
2018-07-09T05:19:57.394Z,14.22
2018-07-09T05:20:57.366Z,14.21
2018-07-09T05:21:57.439Z,14.27
2018-07-09T05:22:57.390Z,14.31
2018-07-09T05:23:57.389Z,14.33
2018-07-09T05:24:57.421Z,14.38
2018-07-09T05:25:57.369Z,14.39
2018-07-09T05:26:57.338Z,14.40
2018-07-09T05:27:57.446Z,14.39
2018-07-09T05:28:57.316Z,14.42
2018-07-09T05:29:57.377Z,14.38
2018-07-09T05:30:57.384Z,14.36
2018-07-09T05:31:57.389Z,14.36
2018-07-09T05:32:57.317Z,14.38
2018-07-09T05:33:57.324Z,14.39
2018-07-09T05:34:57.389Z,14.36
2018-07-09T05:35:57.458Z,14.36
2018-07-09T05:36:57.449Z,14.39
2018-07-09T05:37:57.386Z,14.42
2018-07-09T05:38:57.392Z,14.47
2018-07-09T05:39:57.486Z,14.51
2018-07-09T05:40:57.384Z,14.55
2018-07-09T05:41:57.422Z,14.55
2018-07-09T05:42:57.457Z,14.61
2018-07-09T05:43:57.328Z,14.68
2018-07-09T05:44:57.331Z,14.73
2018-07-09T05:45:57.424Z,14.80
2018-07-09T05:46:57.525Z,14.84
2018-07-09T05:47:57.348Z,14.91
2018-07-09T05:48:57.337Z,14.98
2018-07-09T05:49:57.454Z,15.07
2018-07-09T05:50:57.394Z,15.11
2018-07-09T05:51:57.471Z,15.17
2018-07-09T05:52:57.347Z,15.22
2018-07-09T05:53:57.432Z,15.37
2018-07-09T05:54:57.355Z,15.51
2018-07-09T05:55:57.400Z,15.64
2018-07-09T05:56:57.399Z,15.70
2018-07-09T05:57:57.416Z,15.88
2018-07-09T05:58:57.487Z,15.99
2018-07-09T05:59:57.358Z,16.06
2018-07-09T06:00:57.339Z,16.20
2018-07-09T06:01:57.414Z,16.36
2018-07-09T06:02:57.410Z,16.61
2018-07-09T06:03:57.462Z,16.85
2018-07-09T06:04:57.464Z,16.99
2018-07-09T06:05:57.473Z,17.03
2018-07-09T06:06:57.435Z,17.05
2018-07-09T06:07:57.417Z,17.01
2018-07-09T06:08:57.458Z,17.03
2018-07-09T06:09:57.441Z,16.79
2018-07-09T06:10:57.413Z,16.70
2018-07-09T06:11:57.403Z,16.81
2018-07-09T06:12:57.443Z,16.88
2018-07-09T06:13:57.445Z,16.98
2018-07-09T06:14:57.415Z,17.08
2018-07-09T06:15:57.399Z,17.14
2018-07-09T06:16:57.425Z,17.24
2018-07-09T06:17:57.405Z,17.13
2018-07-09T06:18:57.418Z,17.01
2018-07-09T06:19:57.430Z,16.80
2018-07-09T06:20:57.412Z,16.76
2018-07-09T06:21:57.373Z,16.79
2018-07-09T06:22:57.427Z,16.94
2018-07-09T06:23:57.490Z,17.08
2018-07-09T06:24:57.482Z,16.99
2018-07-09T06:25:57.472Z,17.09
2018-07-09T06:26:57.424Z,17.01
2018-07-09T06:27:57.472Z,17.03
2018-07-09T06:28:57.419Z,17.08
2018-07-09T06:29:57.377Z,16.97
2018-07-09T06:30:57.320Z,16.85
2018-07-09T06:31:57.346Z,16.81
2018-07-09T06:32:57.410Z,16.91
2018-07-09T06:33:57.433Z,16.91
2018-07-09T06:34:57.433Z,16.95
2018-07-09T06:35:57.419Z,17.08
2018-07-09T06:36:57.354Z,17.22
2018-07-09T06:37:57.351Z,17.29
2018-07-09T06:38:57.352Z,17.47
2018-07-09T06:39:57.443Z,17.71
2018-07-09T06:40:57.369Z,17.68
2018-07-09T06:41:57.484Z,17.75
2018-07-09T06:42:57.520Z,17.76
2018-07-09T06:43:57.471Z,17.95
2018-07-09T06:44:57.437Z,18.14
2018-07-09T06:45:57.506Z,18.43
2018-07-09T06:46:57.373Z,18.40
2018-07-09T06:47:57.371Z,18.14
2018-07-09T06:48:57.374Z,17.91
2018-07-09T06:49:57.444Z,17.62
2018-07-09T06:50:57.448Z,17.57
2018-07-09T06:51:57.373Z,17.68
2018-07-09T06:52:57.431Z,17.92
2018-07-09T06:53:57.471Z,18.03
2018-07-09T06:54:57.379Z,18.13
2018-07-09T06:55:57.452Z,18.29
2018-07-09T06:56:57.374Z,18.43
2018-07-09T06:57:57.513Z,18.28
2018-07-09T06:58:57.377Z,18.16
2018-07-09T06:59:57.393Z,18.14
2018-07-09T07:00:57.401Z,18.31
2018-07-09T07:01:57.466Z,18.34
2018-07-09T07:02:57.472Z,18.48
2018-07-09T07:03:57.472Z,18.76
2018-07-09T07:04:57.470Z,18.80
2018-07-09T07:05:57.429Z,18.84
2018-07-09T07:06:57.347Z,18.76
2018-07-09T07:07:57.387Z,18.79
2018-07-09T07:08:57.552Z,18.73
2018-07-09T07:09:57.419Z,18.54
2018-07-09T07:10:57.510Z,18.44
2018-07-09T07:11:57.512Z,18.47
2018-07-09T07:12:57.517Z,18.66
2018-07-09T07:13:57.505Z,18.70
2018-07-09T07:14:57.463Z,18.83
2018-07-09T07:15:57.458Z,18.99
2018-07-09T07:16:57.524Z,19.15
2018-07-09T07:17:57.527Z,19.05
2018-07-09T07:18:57.524Z,19.01
2018-07-09T07:19:57.453Z,19.13
2018-07-09T07:20:57.576Z,19.13
2018-07-09T07:21:57.518Z,19.19
2018-07-09T07:22:57.488Z,19.16
2018-07-09T07:23:57.492Z,19.10
2018-07-09T07:24:57.450Z,19.28
2018-07-09T07:25:57.450Z,19.57
2018-07-09T07:26:57.474Z,19.76
2018-07-09T07:27:57.471Z,19.96
2018-07-09T07:28:57.542Z,20.12
2018-07-09T07:29:57.463Z,20.35
2018-07-09T07:30:57.497Z,20.60
2018-07-09T07:31:57.434Z,20.84
2018-07-09T07:32:57.433Z,21.02
2018-07-09T07:33:57.432Z,21.28
2018-07-09T07:34:57.434Z,21.29
2018-07-09T07:35:57.501Z,21.32
2018-07-09T07:36:57.437Z,21.14
2018-07-09T07:37:57.503Z,21.16
2018-07-09T07:38:57.448Z,21.13
2018-07-09T07:39:57.464Z,21.20
2018-07-09T07:40:57.505Z,21.22
2018-07-09T07:41:57.481Z,21.06
2018-07-09T07:42:57.528Z,21.16
2018-07-09T07:43:57.464Z,21.38
2018-07-09T07:44:57.551Z,21.47
2018-07-09T07:45:57.405Z,21.69
2018-07-09T07:46:57.432Z,21.68
2018-07-09T07:47:57.481Z,21.98
2018-07-09T07:48:57.509Z,21.94
2018-07-09T07:49:57.443Z,22.02
2018-07-09T07:50:57.517Z,21.79
2018-07-09T07:51:57.448Z,21.51
2018-07-09T07:52:57.445Z,21.38
2018-07-09T07:53:57.446Z,21.39
2018-07-09T07:54:57.522Z,21.31
2018-07-09T07:55:57.579Z,21.04
2018-07-09T07:56:57.514Z,20.52
2018-07-09T07:57:57.512Z,20.38
2018-07-09T07:58:57.450Z,20.60
2018-07-09T07:59:57.418Z,20.76
2018-07-09T08:00:57.490Z,20.80
2018-07-09T08:01:57.477Z,20.83
2018-07-09T08:02:57.615Z,20.98
2018-07-09T08:03:57.518Z,20.84
2018-07-09T08:04:57.517Z,20.84
2018-07-09T08:05:57.420Z,20.46
2018-07-09T08:06:57.543Z,20.36
2018-07-09T08:07:57.519Z,20.24
2018-07-09T08:08:57.493Z,20.07
2018-07-09T08:09:57.445Z,20.30
2018-07-09T08:10:57.496Z,20.36
2018-07-09T08:12:59.667Z,20.20
2018-07-09T08:13:13.735Z,20.30
2018-07-09T08:13:57.521Z,20.46
2018-07-09T08:14:57.490Z,20.76
2018-07-09T08:15:57.528Z,21.06
2018-07-09T08:16:57.506Z,21.43
2018-07-09T08:17:57.506Z,21.73
2018-07-09T08:18:57.496Z,21.71
2018-07-09T08:19:57.482Z,21.96
2018-07-09T08:20:57.530Z,21.86
2018-07-09T08:21:57.517Z,21.62
2018-07-09T08:22:57.460Z,21.83
2018-07-09T08:23:57.436Z,21.57
2018-07-09T08:24:57.541Z,21.28
2018-07-09T08:25:57.536Z,20.88
2018-07-09T08:26:57.439Z,20.65
2018-07-09T08:27:57.538Z,20.50
2018-07-09T08:28:57.432Z,20.46
2018-07-09T08:29:57.470Z,20.65
2018-07-09T08:30:57.472Z,20.80
2018-07-09T08:31:57.538Z,20.93
2018-07-09T08:32:57.479Z,21.01
2018-07-09T08:33:57.470Z,20.95
2018-07-09T08:34:57.427Z,20.70
2018-07-09T08:35:57.540Z,20.57
2018-07-09T08:36:57.540Z,20.45
2018-07-09T08:37:57.513Z,20.27
2018-07-09T08:38:57.481Z,20.12
2018-07-09T08:39:57.538Z,20.13
2018-07-09T08:40:57.545Z,20.28
2018-07-09T08:41:57.500Z,20.39
2018-07-09T08:42:57.548Z,20.57
2018-07-09T08:43:57.478Z,20.84
2018-07-09T08:44:57.546Z,21.22
2018-07-09T08:45:57.566Z,21.38
2018-07-09T08:46:57.480Z,21.28
2018-07-09T08:47:57.547Z,21.35
2018-07-09T08:48:57.480Z,21.57
2018-07-09T08:49:57.607Z,21.67
2018-07-09T08:50:57.479Z,21.91
2018-07-09T08:51:57.503Z,21.98
2018-07-09T08:52:57.536Z,21.64
2018-07-09T08:53:57.430Z,21.68
2018-07-09T08:54:57.544Z,21.56
2018-07-09T08:55:57.484Z,21.71
2018-07-09T08:56:57.458Z,21.64
2018-07-09T08:57:57.439Z,21.65
2018-07-09T08:58:57.522Z,21.50
2018-07-09T08:59:57.571Z,21.54
2018-07-09T09:00:57.497Z,21.62
2018-07-09T09:01:57.557Z,21.71
2018-07-09T09:02:57.556Z,21.94
2018-07-09T09:03:57.492Z,21.89
2018-07-09T09:04:57.494Z,22.13
2018-07-09T09:05:57.558Z,22.43
2018-07-09T09:06:57.502Z,22.61
2018-07-09T09:07:57.497Z,22.88
2018-07-09T09:08:57.563Z,23.15
2018-07-09T09:09:57.499Z,23.35
2018-07-09T09:10:57.498Z,23.33
2018-07-09T09:11:57.569Z,23.51
2018-07-09T09:12:57.563Z,23.63
2018-07-09T09:13:57.562Z,23.57
2018-07-09T09:14:57.500Z,23.16
2018-07-09T09:15:57.455Z,22.54
2018-07-09T09:16:57.510Z,22.21
2018-07-09T09:17:57.580Z,21.94
2018-07-09T09:18:57.502Z,22.20
2018-07-09T09:19:57.569Z,22.20
2018-07-09T09:20:57.547Z,22.20
2018-07-09T09:21:57.524Z,22.14
2018-07-09T09:22:57.592Z,22.38
2018-07-09T09:23:57.506Z,22.82
2018-07-09T09:24:57.533Z,23.22
2018-07-09T09:25:57.535Z,23.41
2018-07-09T09:26:57.588Z,23.16
2018-07-09T09:27:57.574Z,22.71
2018-07-09T09:28:57.574Z,22.46
2018-07-09T09:29:57.480Z,22.27
2018-07-09T09:30:57.575Z,22.27
2018-07-09T09:31:57.597Z,22.45
2018-07-09T09:32:57.482Z,22.68
2018-07-09T09:33:57.576Z,22.84
2018-07-09T09:34:57.543Z,23.08
2018-07-09T09:35:57.480Z,23.04
2018-07-09T09:36:57.559Z,23.06
2018-07-09T09:37:57.490Z,22.97
2018-07-09T09:38:57.610Z,22.87
2018-07-09T09:39:57.618Z,22.97
2018-07-09T09:40:57.559Z,23.05
2018-07-09T09:41:57.613Z,22.56
2018-07-09T09:42:57.504Z,22.31
2018-07-09T09:43:57.574Z,21.98
2018-07-09T09:44:57.491Z,22.09
2018-07-09T09:45:57.507Z,22.41
2018-07-09T09:46:57.490Z,22.53
2018-07-09T09:47:57.563Z,22.80
2018-07-09T09:48:57.551Z,22.91
2018-07-09T09:49:57.565Z,23.24
2018-07-09T09:50:57.486Z,23.30
2018-07-09T09:51:57.613Z,23.35
2018-07-09T09:52:57.574Z,23.42
2018-07-09T09:53:57.600Z,23.42
2018-07-09T09:54:57.630Z,23.26
2018-07-09T09:55:57.633Z,23.23
2018-07-09T09:56:57.625Z,23.16
2018-07-09T09:57:57.616Z,23.63
2018-07-09T09:58:57.571Z,23.97
2018-07-09T09:59:57.619Z,24.01
2018-07-09T10:00:57.597Z,23.85
2018-07-09T10:01:57.530Z,23.79
2018-07-09T10:02:57.531Z,24.05
2018-07-09T10:03:57.608Z,24.05
2018-07-09T10:04:57.534Z,24.04
2018-07-09T10:05:57.531Z,24.16
2018-07-09T10:06:57.622Z,24.01
2018-07-09T10:07:57.634Z,23.63
2018-07-09T10:08:57.535Z,23.51
2018-07-09T10:09:57.604Z,23.76
2018-07-09T10:10:57.510Z,23.94
2018-07-09T10:11:57.503Z,23.93
2018-07-09T10:12:57.527Z,23.64
2018-07-09T10:13:57.535Z,23.97
2018-07-09T10:14:57.795Z,24.29
2018-07-09T10:15:57.574Z,24.47
2018-07-09T10:16:57.675Z,24.64
2018-07-09T10:17:57.513Z,24.72
2018-07-09T10:18:57.607Z,24.82
2018-07-09T10:19:57.593Z,24.77
2018-07-09T10:20:57.505Z,24.86
2018-07-09T10:21:57.478Z,24.83
2018-07-09T10:22:57.746Z,24.78
2018-07-09T10:23:57.567Z,24.71
2018-07-09T10:24:57.632Z,24.71
2018-07-09T10:25:57.566Z,24.67
2018-07-09T10:26:57.510Z,24.22
2018-07-09T10:27:57.483Z,24.12
2018-07-09T10:28:57.484Z,24.14
2018-07-09T10:29:57.506Z,23.89
2018-07-09T10:30:57.584Z,23.87
2018-07-09T10:31:57.578Z,23.76
2018-07-09T10:32:57.652Z,23.76
2018-07-09T10:33:57.601Z,23.79
2018-07-09T10:34:57.644Z,23.89
2018-07-09T10:35:57.659Z,24.08
2018-07-09T10:36:57.653Z,24.18
2018-07-09T10:37:57.623Z,24.36
2018-07-09T10:38:57.666Z,24.30
2018-07-09T10:39:57.596Z,24.01
2018-07-09T10:40:57.563Z,23.75
2018-07-09T10:41:57.625Z,23.42
2018-07-09T10:42:57.610Z,23.20
2018-07-09T10:43:57.565Z,23.27
2018-07-09T10:44:57.527Z,23.31
2018-07-09T10:45:57.648Z,23.24
2018-07-09T10:46:57.606Z,23.17
2018-07-09T10:47:57.660Z,23.23
2018-07-09T10:48:57.550Z,23.22
2018-07-09T10:49:57.569Z,23.19
2018-07-09T10:50:57.633Z,23.12
2018-07-09T10:51:57.567Z,23.16
2018-07-09T10:52:57.629Z,23.27
2018-07-09T10:53:57.631Z,23.20
2018-07-09T10:54:57.512Z,23.17
2018-07-09T10:55:57.567Z,23.24
2018-07-09T10:56:57.638Z,23.28
2018-07-09T10:57:57.632Z,23.42
2018-07-09T10:58:57.569Z,23.60
2018-07-09T10:59:57.569Z,23.67
2018-07-09T11:00:57.640Z,23.69
2018-07-09T11:01:57.562Z,23.71
2018-07-09T11:02:57.535Z,23.57
2018-07-09T11:03:57.608Z,23.53
2018-07-09T11:04:57.596Z,23.42
2018-07-09T11:05:57.548Z,23.28
2018-07-09T11:06:57.637Z,23.19
2018-07-09T11:07:57.596Z,23.01
2018-07-09T11:08:57.680Z,22.91
2018-07-09T11:09:57.616Z,22.77
2018-07-09T11:10:57.664Z,22.83
2018-07-09T11:11:57.662Z,22.72
2018-07-09T11:12:57.608Z,22.63
2018-07-09T11:13:57.602Z,22.54
2018-07-09T11:14:57.661Z,22.49
2018-07-09T11:15:57.619Z,22.60
2018-07-09T11:16:57.626Z,22.56
2018-07-09T11:17:57.600Z,22.54
2018-07-09T11:18:57.623Z,22.63
2018-07-09T11:19:57.649Z,22.71
2018-07-09T11:20:57.650Z,22.70
2018-07-09T11:21:57.685Z,22.80
2018-07-09T11:22:57.685Z,22.79
2018-07-09T11:23:57.551Z,22.70
2018-07-09T11:24:57.621Z,22.60
2018-07-09T11:25:57.655Z,22.54
2018-07-09T11:26:57.560Z,22.61
2018-07-09T11:27:57.579Z,22.46
2018-07-09T11:28:57.653Z,22.43
2018-07-09T11:29:57.586Z,22.48
2018-07-09T11:30:57.594Z,22.56
2018-07-09T11:31:57.644Z,22.63
2018-07-09T11:32:57.584Z,22.80
2018-07-09T11:33:57.622Z,22.90
2018-07-09T11:34:57.567Z,22.93
2018-07-09T11:35:57.749Z,22.88
2018-07-09T11:36:57.621Z,22.79
2018-07-09T11:37:57.559Z,22.84
2018-07-09T11:38:57.587Z,22.84
2018-07-09T11:39:57.668Z,22.88
2018-07-09T11:40:57.618Z,22.80
2018-07-09T11:41:57.550Z,22.64
2018-07-09T11:42:57.600Z,22.70
2018-07-09T11:43:57.627Z,22.80
2018-07-09T11:44:57.687Z,22.76
2018-07-09T11:45:57.667Z,22.71
2018-07-09T11:46:57.601Z,22.52
2018-07-09T11:47:57.612Z,22.61
2018-07-09T11:48:57.668Z,22.75
2018-07-09T11:49:57.604Z,22.76
2018-07-09T11:50:57.619Z,22.72
2018-07-09T11:51:57.711Z,22.80
2018-07-09T11:52:57.700Z,22.77
2018-07-09T11:53:57.579Z,22.76
2018-07-09T11:54:57.652Z,22.72
2018-07-09T11:55:57.599Z,22.61
2018-07-09T11:56:57.578Z,22.53
2018-07-09T11:57:57.715Z,22.42
2018-07-09T11:58:57.763Z,22.59
2018-07-09T11:59:57.639Z,22.46
2018-07-09T12:00:57.617Z,22.46
2018-07-09T12:01:57.613Z,22.50
2018-07-09T12:02:57.677Z,22.48
2018-07-09T12:03:57.620Z,22.46
2018-07-09T12:04:57.683Z,22.60
2018-07-09T12:05:57.619Z,22.53
2018-07-09T12:06:57.612Z,22.59
2018-07-09T12:07:57.687Z,22.52
2018-07-09T12:08:57.684Z,22.50
2018-07-09T12:09:57.616Z,22.39
2018-07-09T12:10:57.551Z,22.28
2018-07-09T12:11:57.676Z,22.35
2018-07-09T12:12:57.611Z,22.27
2018-07-09T12:13:57.575Z,22.19
2018-07-09T12:14:57.622Z,22.17
2018-07-09T12:15:57.752Z,22.27
2018-07-09T12:16:57.675Z,22.30
2018-07-09T12:17:57.625Z,22.36
2018-07-09T12:18:57.677Z,22.23
2018-07-09T12:19:57.682Z,22.21
2018-07-09T12:20:57.686Z,22.13
2018-07-09T12:21:57.592Z,22.13
2018-07-09T12:22:57.619Z,21.90
2018-07-09T12:23:57.684Z,21.82
2018-07-09T12:24:57.626Z,21.73
2018-07-09T12:25:57.642Z,21.76
2018-07-09T12:26:57.628Z,21.71
2018-07-09T12:27:57.600Z,21.60
2018-07-09T12:28:57.685Z,21.53
2018-07-09T12:29:57.627Z,21.45
2018-07-09T12:30:57.729Z,21.39
2018-07-09T12:31:57.734Z,21.32
2018-07-09T12:32:57.673Z,21.32
2018-07-09T12:33:57.602Z,21.28
2018-07-09T12:34:57.714Z,21.27
2018-07-09T12:35:57.731Z,21.31
2018-07-09T12:36:57.610Z,21.20
2018-07-09T12:37:57.622Z,21.14
2018-07-09T12:38:57.610Z,21.13
2018-07-09T12:39:57.655Z,21.17
2018-07-09T12:40:57.744Z,21.16
2018-07-09T12:41:57.664Z,21.25
2018-07-09T12:42:57.608Z,21.32
2018-07-09T12:43:57.733Z,21.32
2018-07-09T12:44:57.705Z,21.27
2018-07-09T12:45:57.739Z,21.25
2018-07-09T12:46:57.667Z,21.27
2018-07-09T12:47:57.629Z,21.31
2018-07-09T12:48:57.610Z,21.35
2018-07-09T12:49:57.733Z,21.42
2018-07-09T12:50:57.733Z,21.36
2018-07-09T12:51:57.677Z,21.32
2018-07-09T12:52:57.711Z,21.35
2018-07-09T12:53:57.631Z,21.38
2018-07-09T12:54:57.631Z,21.28
2018-07-09T12:55:57.674Z,21.14
2018-07-09T12:56:57.620Z,21.02